createdAt,value
2018-03-25T00:01:11.743Z,78.10
2018-03-25T00:03:39.144Z,92.90
2018-03-25T00:06:06.517Z,87.97
2018-03-25T00:08:34.000Z,85.00
2018-03-25T00:11:01.367Z,96.10
2018-03-25T00:13:28.740Z,81.53
2018-03-25T00:15:56.117Z,83.47
2018-03-25T00:18:23.527Z,79.37
2018-03-25T00:20:50.920Z,86.67
2018-03-25T00:23:18.282Z,84.67
2018-03-25T00:25:45.661Z,80.60
2018-03-25T00:28:13.028Z,87.03
2018-03-25T00:30:40.414Z,81.97
2018-03-25T00:33:07.817Z,90.30
2018-03-25T00:35:35.173Z,90.13
2018-03-25T00:38:02.543Z,87.77
2018-03-25T00:40:29.941Z,87.03
2018-03-25T00:42:57.297Z,97.97
2018-03-25T00:45:24.650Z,98.10
2018-03-25T00:47:52.057Z,90.73
2018-03-25T00:50:19.526Z,85.70
2018-03-25T00:52:46.901Z,90.93
2018-03-25T00:55:14.316Z,92.30
2018-03-25T00:57:41.672Z,81.63
2018-03-25T01:00:09.032Z,88.47
2018-03-25T01:02:36.533Z,91.47
2018-03-25T01:05:03.914Z,89.47
2018-03-25T01:07:31.318Z,82.83
2018-03-25T01:09:58.709Z,94.30
2018-03-25T01:12:26.122Z,92.20
2018-03-25T01:14:53.524Z,95.77
2018-03-25T01:17:20.929Z,85.73
2018-03-25T01:19:48.306Z,88.07
2018-03-25T01:22:15.746Z,86.97
2018-03-25T01:24:43.142Z,93.60
2018-03-25T01:27:10.498Z,82.17
2018-03-25T01:29:37.915Z,86.83
2018-03-25T01:32:29.917Z,91.27
2018-03-25T01:34:57.251Z,84.90
2018-03-25T01:37:24.605Z,89.20
2018-03-25T01:39:52.001Z,90.17
2018-03-25T01:42:19.361Z,88.67
2018-03-25T01:44:46.712Z,83.67
2018-03-25T01:47:14.120Z,85.37
2018-03-25T01:49:41.512Z,96.57
2018-03-25T01:52:08.937Z,103.77
2018-03-25T01:54:36.306Z,86.83
2018-03-25T01:57:03.692Z,88.93
2018-03-25T01:59:31.045Z,85.17
2018-03-25T02:01:58.404Z,82.13
2018-03-25T02:04:25.797Z,93.90
2018-03-25T02:06:53.188Z,82.47
2018-03-25T02:09:20.551Z,96.73
2018-03-25T02:11:47.977Z,88.40
2018-03-25T02:14:15.337Z,81.87
2018-03-25T02:16:42.695Z,92.70
2018-03-25T02:19:10.088Z,86.33
2018-03-25T02:21:37.450Z,82.27
2018-03-25T02:24:04.872Z,88.50
2018-03-25T02:26:32.276Z,88.83
2018-03-25T02:28:59.640Z,89.60
2018-03-25T02:31:27.023Z,95.65
2018-03-25T02:33:54.393Z,83.67
2018-03-25T02:36:21.819Z,84.00
2018-03-25T02:38:49.179Z,92.43
2018-03-25T02:41:16.542Z,88.40
2018-03-25T02:43:43.955Z,88.27
2018-03-25T02:46:11.322Z,88.93
2018-03-25T02:48:38.689Z,95.90
2018-03-25T02:51:06.087Z,90.73
2018-03-25T02:53:33.464Z,90.17
2018-03-25T02:56:00.842Z,92.00
2018-03-25T02:58:28.245Z,87.83
2018-03-25T03:00:55.607Z,93.00
2018-03-25T03:03:22.977Z,93.33
2018-03-25T03:05:50.590Z,90.37
2018-03-25T03:08:17.979Z,102.63
2018-03-25T03:10:45.405Z,99.40
2018-03-25T03:13:12.765Z,90.87
2018-03-25T03:15:40.166Z,90.03
2018-03-25T03:18:07.558Z,94.73
2018-03-25T03:20:35.724Z,89.53
2018-03-25T03:23:03.093Z,102.37
2018-03-25T03:25:30.505Z,94.97
2018-03-25T03:27:57.878Z,89.50
2018-03-25T03:30:25.259Z,101.33
2018-03-25T03:32:52.663Z,89.47
2018-03-25T03:35:20.021Z,89.97
2018-03-25T03:37:47.389Z,94.33
2018-03-25T03:40:14.785Z,89.43
2018-03-25T03:42:42.141Z,92.20
2018-03-25T03:45:09.505Z,93.77
2018-03-25T03:47:36.922Z,85.37
2018-03-25T03:50:04.326Z,89.03
2018-03-25T03:52:31.700Z,78.23
2018-03-25T03:54:59.096Z,87.67
2018-03-25T03:57:26.481Z,88.47
2018-03-25T03:59:53.838Z,82.63
2018-03-25T04:02:21.218Z,89.27
2018-03-25T04:04:48.573Z,78.10
2018-03-25T04:07:15.973Z,87.57
2018-03-25T04:09:43.338Z,80.37
2018-03-25T04:12:10.694Z,87.10
2018-03-25T04:14:38.114Z,84.43
2018-03-25T04:17:05.481Z,78.77
2018-03-25T04:19:32.843Z,83.00
2018-03-25T04:22:00.242Z,88.17
2018-03-25T04:24:27.597Z,80.30
2018-03-25T04:26:54.961Z,85.90
2018-03-25T04:29:22.365Z,94.63
2018-03-25T04:31:49.722Z,84.10
2018-03-25T04:34:17.078Z,74.27
2018-03-25T04:36:44.483Z,76.90
2018-03-25T04:39:11.845Z,85.97
2018-03-25T04:41:39.231Z,74.40
2018-03-25T04:44:06.645Z,72.60
2018-03-25T04:46:34.017Z,88.00
2018-03-25T04:49:01.369Z,80.03
2018-03-25T04:51:28.764Z,80.13
2018-03-25T04:53:56.126Z,75.90
2018-03-25T04:56:23.481Z,75.20
2018-03-25T04:58:50.881Z,83.83
2018-03-25T05:01:18.252Z,87.90
2018-03-25T05:03:45.613Z,75.70
2018-03-25T05:06:13.001Z,79.60
2018-03-25T05:08:40.369Z,80.07
2018-03-25T05:11:08.524Z,90.40
2018-03-25T05:13:35.890Z,83.00
2018-03-25T05:16:03.258Z,78.17
2018-03-25T05:18:30.667Z,75.30
2018-03-25T05:20:58.029Z,79.47
2018-03-25T05:23:25.406Z,73.97
2018-03-25T05:25:52.821Z,77.33
2018-03-25T05:28:20.219Z,77.63
2018-03-25T05:30:47.618Z,82.97
2018-03-25T05:33:15.013Z,75.87
2018-03-25T05:35:42.387Z,75.63
2018-03-25T05:38:09.778Z,78.00
2018-03-25T05:40:37.547Z,79.00
2018-03-25T05:43:04.912Z,76.17
2018-03-25T05:45:32.269Z,75.40
2018-03-25T05:47:59.650Z,80.77
2018-03-25T05:50:27.029Z,86.87
2018-03-25T05:52:54.434Z,68.70
2018-03-25T05:55:21.824Z,67.20
2018-03-25T05:57:49.183Z,76.70
2018-03-25T06:00:16.593Z,72.30
2018-03-25T06:02:43.961Z,72.67
2018-03-25T06:05:11.316Z,81.43
2018-03-25T06:07:38.703Z,75.10
2018-03-25T06:10:06.165Z,65.60
2018-03-25T06:12:33.569Z,70.70
2018-03-25T06:15:00.934Z,76.40
2018-03-25T06:17:28.294Z,70.30
2018-03-25T06:19:55.702Z,75.37
2018-03-25T06:22:23.065Z,80.10
2018-03-25T06:24:50.454Z,71.77
2018-03-25T06:27:17.861Z,75.97
2018-03-25T06:29:45.235Z,68.13
2018-03-25T06:32:12.599Z,66.17
2018-03-25T06:34:40.010Z,66.13
2018-03-25T06:37:07.387Z,66.73
2018-03-25T06:39:34.746Z,66.73
2018-03-25T06:42:02.146Z,66.33
2018-03-25T06:44:29.506Z,65.47
2018-03-25T06:46:56.873Z,61.20
2018-03-25T06:49:24.266Z,66.30
2018-03-25T06:51:51.679Z,68.27
2018-03-25T06:54:19.064Z,68.13
2018-03-25T06:56:46.453Z,65.63
2018-03-25T06:59:13.822Z,67.30
2018-03-25T07:01:41.182Z,69.83
2018-03-25T07:04:08.565Z,65.53
2018-03-25T07:06:35.977Z,65.87
2018-03-25T07:09:03.353Z,64.43
2018-03-25T07:11:30.718Z,65.33
2018-03-25T07:13:58.135Z,63.83
2018-03-25T07:16:25.647Z,61.23
2018-03-25T07:18:53.015Z,60.10
2018-03-25T07:21:20.386Z,64.70
2018-03-25T07:23:47.774Z,58.43
2018-03-25T07:26:15.137Z,58.50
2018-03-25T07:28:42.838Z,58.53
2018-03-25T07:31:10.202Z,56.97
2018-03-25T07:33:37.557Z,61.87
2018-03-25T07:36:04.950Z,59.67
2018-03-25T07:38:32.322Z,61.50
2018-03-25T07:40:59.734Z,60.37
2018-03-25T07:43:27.092Z,57.57
2018-03-25T07:45:54.458Z,59.73
2018-03-25T07:48:21.841Z,57.90
2018-03-25T07:50:49.226Z,61.87
2018-03-25T07:53:16.609Z,59.73
2018-03-25T07:55:47.581Z,60.00
2018-03-25T07:58:14.937Z,56.20
2018-03-25T08:00:42.322Z,64.07
2018-03-25T08:03:09.721Z,63.87
2018-03-25T08:05:37.080Z,62.97
2018-03-25T08:08:04.433Z,58.33
2018-03-25T08:10:31.846Z,54.83
2018-03-25T08:12:59.218Z,59.87
2018-03-25T08:15:26.587Z,65.93
2018-03-25T08:17:54.105Z,68.17
2018-03-25T08:20:21.594Z,65.10
2018-03-25T08:22:48.954Z,60.40
2018-03-25T08:25:16.347Z,58.23
2018-03-25T08:27:43.702Z,64.77
2018-03-25T08:30:11.097Z,62.90
2018-03-25T08:32:38.485Z,66.50
2018-03-25T08:35:05.899Z,57.50
2018-03-25T08:37:33.254Z,61.13
2018-03-25T08:40:00.665Z,63.03
2018-03-25T08:42:28.178Z,71.93
2018-03-25T08:44:55.533Z,63.80
2018-03-25T08:47:22.921Z,68.57
2018-03-25T08:49:50.338Z,62.50
2018-03-25T08:52:17.730Z,67.50
2018-03-25T08:54:45.089Z,68.23
2018-03-25T08:57:12.509Z,66.03
2018-03-25T08:59:39.909Z,68.50
2018-03-25T09:02:07.276Z,63.03
2018-03-25T09:04:34.632Z,67.93
2018-03-25T09:07:02.036Z,69.33
2018-03-25T09:09:29.426Z,70.23
2018-03-25T09:11:56.789Z,69.53
2018-03-25T09:14:24.205Z,70.60
2018-03-25T09:16:51.566Z,62.37
2018-03-25T09:19:18.958Z,62.33
2018-03-25T09:21:46.370Z,66.77
2018-03-25T09:24:13.762Z,65.27
2018-03-25T09:26:41.122Z,66.43
2018-03-25T09:29:08.502Z,58.93
2018-03-25T09:31:35.857Z,67.57
2018-03-25T09:34:03.259Z,64.70
2018-03-25T09:36:30.622Z,63.73
2018-03-25T09:38:57.987Z,62.23
2018-03-25T09:41:25.384Z,60.50
2018-03-25T09:43:52.757Z,64.77
2018-03-25T09:46:20.166Z,62.07
2018-03-25T09:48:47.527Z,76.97
2018-03-25T09:51:14.889Z,64.53
2018-03-25T09:53:42.293Z,57.73
2018-03-25T09:56:09.656Z,71.07
2018-03-25T09:58:37.074Z,64.77
2018-03-25T10:01:10.326Z,66.80
2018-03-25T10:03:37.693Z,60.03
2018-03-25T10:06:05.063Z,66.03
2018-03-25T10:08:32.475Z,62.40
2018-03-25T10:10:59.865Z,61.17
2018-03-25T10:13:27.221Z,63.40
2018-03-25T10:15:54.645Z,59.83
2018-03-25T10:18:22.005Z,69.57
2018-03-25T10:20:49.368Z,67.13
2018-03-25T10:23:16.745Z,72.90
2018-03-25T10:25:45.062Z,65.10
2018-03-25T10:28:12.450Z,74.10
2018-03-25T10:30:39.810Z,63.87
2018-03-25T10:33:07.208Z,65.20
2018-03-25T10:35:34.570Z,68.97
2018-03-25T10:38:01.931Z,61.27
2018-03-25T10:40:29.345Z,62.90
2018-03-25T10:42:56.705Z,63.90
2018-03-25T10:45:24.061Z,63.53
2018-03-25T10:47:51.460Z,64.23
2018-03-25T10:50:18.840Z,60.00
2018-03-25T10:52:46.214Z,70.57
2018-03-25T10:55:13.605Z,63.20
2018-03-25T10:57:40.961Z,61.97
2018-03-25T11:00:08.330Z,67.30
2018-03-25T11:02:35.754Z,64.93
2018-03-25T11:05:03.117Z,68.47
2018-03-25T11:07:30.487Z,63.00
2018-03-25T11:09:57.882Z,68.80
2018-03-25T11:12:25.238Z,60.13
2018-03-25T11:14:52.641Z,59.43
2018-03-25T11:17:20.163Z,64.87
2018-03-25T11:19:47.530Z,65.80
2018-03-25T11:22:14.910Z,63.33
2018-03-25T11:24:42.330Z,67.67
2018-03-25T11:27:09.687Z,60.93
2018-03-25T11:29:37.093Z,68.37
2018-03-25T11:32:04.500Z,64.23
2018-03-25T11:34:31.865Z,59.60
2018-03-25T11:36:59.220Z,67.90
2018-03-25T11:39:26.602Z,64.10
2018-03-25T11:41:54.002Z,59.33
2018-03-25T11:44:21.364Z,63.17
2018-03-25T11:46:48.726Z,59.83
2018-03-25T11:49:16.113Z,61.60
2018-03-25T11:51:43.506Z,59.63
2018-03-25T11:54:10.886Z,62.20
2018-03-25T11:56:38.305Z,59.70
2018-03-25T11:59:05.742Z,63.10
2018-03-25T12:01:33.097Z,59.63
2018-03-25T12:04:00.454Z,58.53
2018-03-25T12:06:27.847Z,55.13
2018-03-25T12:08:55.202Z,55.97
2018-03-25T12:11:22.558Z,57.27
2018-03-25T12:13:49.971Z,56.20
2018-03-25T12:16:17.333Z,57.50
2018-03-25T12:18:44.707Z,54.80
2018-03-25T12:21:12.106Z,50.60
2018-03-25T12:23:39.466Z,54.30
2018-03-25T12:26:06.825Z,54.83
2018-03-25T12:28:34.213Z,58.07
2018-03-25T12:31:01.614Z,52.53
2018-03-25T12:33:28.969Z,45.83
2018-03-25T12:35:56.337Z,53.00
2018-03-25T12:38:23.737Z,52.03
2018-03-25T12:40:51.094Z,53.40
2018-03-25T12:43:18.456Z,53.00
2018-03-25T12:45:45.853Z,53.90
2018-03-25T12:48:13.214Z,49.53
2018-03-25T12:50:40.568Z,50.77
2018-03-25T12:53:07.957Z,53.57
2018-03-25T12:55:35.317Z,53.50
2018-03-25T12:58:02.706Z,52.50
2018-03-25T13:00:30.069Z,48.67
2018-03-25T13:02:57.450Z,52.57
2018-03-25T13:05:24.821Z,49.63
2018-03-25T13:07:52.225Z,53.10
2018-03-25T13:10:19.598Z,51.20
2018-03-25T13:12:47.015Z,50.03
2018-03-25T13:15:14.378Z,52.63
2018-03-25T13:17:41.740Z,51.60
2018-03-25T13:20:09.121Z,52.93
2018-03-25T13:22:36.478Z,53.50
2018-03-25T13:25:03.890Z,53.37
2018-03-25T13:27:31.296Z,53.57
2018-03-25T13:29:58.668Z,53.50
2018-03-25T13:32:26.074Z,55.20
2018-03-25T13:34:53.441Z,57.87
2018-03-25T13:37:20.810Z,49.67
2018-03-25T13:39:48.225Z,52.57
2018-03-25T13:42:15.650Z,54.20
2018-03-25T13:44:43.012Z,50.43
2018-03-25T13:47:10.369Z,50.20
2018-03-25T13:49:37.764Z,52.10
2018-03-25T13:52:05.119Z,53.37
2018-03-25T13:54:32.530Z,49.33
2018-03-25T13:56:59.887Z,50.53
2018-03-25T13:59:27.254Z,49.70
2018-03-25T14:01:54.650Z,49.47
2018-03-25T14:04:22.008Z,51.17
2018-03-25T14:06:49.420Z,53.93
2018-03-25T14:09:16.777Z,50.37
2018-03-25T14:11:44.185Z,53.33
2018-03-25T14:14:11.568Z,51.03
2018-03-25T14:16:38.917Z,52.77
2018-03-25T14:19:06.273Z,49.73
2018-03-25T14:21:33.788Z,54.07
2018-03-25T14:24:01.142Z,51.53
2018-03-25T14:26:28.505Z,50.87
2018-03-25T14:28:55.925Z,54.00
2018-03-25T14:31:23.278Z,50.30
2018-03-25T14:33:50.633Z,55.20
2018-03-25T14:36:18.029Z,55.40
2018-03-25T14:38:45.437Z,53.90
2018-03-25T14:41:12.852Z,52.40
2018-03-25T14:43:40.189Z,52.33
2018-03-25T14:46:07.593Z,51.57
2018-03-25T14:48:34.950Z,55.13
2018-03-25T14:51:02.310Z,52.70
2018-03-25T14:53:29.737Z,52.20
2018-03-25T14:55:57.101Z,52.77
2018-03-25T14:58:24.470Z,51.73
2018-03-25T15:00:51.866Z,51.60
2018-03-25T15:03:19.265Z,56.60
2018-03-25T15:05:46.626Z,53.37
2018-03-25T15:08:13.982Z,52.90
2018-03-25T15:10:41.378Z,49.70
2018-03-25T15:13:08.739Z,51.70
2018-03-25T15:15:36.103Z,49.97
2018-03-25T15:18:03.518Z,52.97
2018-03-25T15:20:30.918Z,51.80
2018-03-25T15:22:58.273Z,53.67
2018-03-25T15:25:25.662Z,55.40
2018-03-25T15:27:53.090Z,56.10
2018-03-25T15:30:20.466Z,51.37
2018-03-25T15:32:47.876Z,55.75
2018-03-25T15:37:42.049Z,59.85
2018-03-25T15:40:09.410Z,57.10
2018-03-25T15:49:57.239Z,54.80
2018-03-25T16:21:46.265Z,54.25
2018-03-25T16:41:22.154Z,56.10
2018-03-25T16:43:49.514Z,58.03
2018-03-25T16:46:16.875Z,55.83
2018-03-25T16:48:44.287Z,63.77
2018-03-25T16:51:11.715Z,61.60
2018-03-25T16:53:39.069Z,58.70
2018-03-25T16:56:06.470Z,57.63
2018-03-25T17:03:27.425Z,58.10
2018-03-25T17:05:54.782Z,56.63
2018-03-25T17:08:22.137Z,61.23
2018-03-25T17:10:49.545Z,60.23
2018-03-25T17:13:16.919Z,61.60
2018-03-25T17:15:44.284Z,67.90
2018-03-25T17:18:11.682Z,62.40
2018-03-25T17:20:39.063Z,63.10
2018-03-25T17:23:06.430Z,64.03
2018-03-25T17:25:33.846Z,64.87
2018-03-25T17:28:01.222Z,62.37
2018-03-25T17:30:28.619Z,68.50
2018-03-25T17:32:56.030Z,71.07
2018-03-25T17:35:23.406Z,75.77
2018-03-25T17:37:50.774Z,76.27
2018-03-25T17:40:18.170Z,77.30
2018-03-25T17:42:45.854Z,69.10
2018-03-25T17:45:13.252Z,71.13
2018-03-25T17:47:40.610Z,75.67
2018-03-25T17:50:08.030Z,68.90
2018-03-25T17:52:35.414Z,68.10
2018-03-25T17:55:02.782Z,73.73
2018-03-25T17:57:30.145Z,76.03
2018-03-25T17:59:57.566Z,76.53
2018-03-25T18:02:24.933Z,81.67
2018-03-25T18:04:52.306Z,76.27
2018-03-25T18:07:19.706Z,76.23
2018-03-25T18:09:47.065Z,76.83
2018-03-25T18:12:14.436Z,76.93
2018-03-25T18:14:41.870Z,79.63
2018-03-25T18:17:33.458Z,82.30
2018-03-25T18:19:36.647Z,100.77
2018-03-25T18:22:04.053Z,82.53
2018-03-25T18:24:31.469Z,95.00
2018-03-25T18:26:58.819Z,104.70
2018-03-25T18:29:26.243Z,214.97
2018-03-25T18:31:53.621Z,159.60
2018-03-25T18:34:21.115Z,119.93
2018-03-25T18:36:48.531Z,92.30
2018-03-25T18:39:15.903Z,106.03
2018-03-25T18:41:43.286Z,113.63
2018-03-25T18:44:10.715Z,100.57
2018-03-25T18:46:38.098Z,100.87
2018-03-25T18:49:05.467Z,85.60
2018-03-25T18:51:32.880Z,87.40
2018-03-25T18:54:00.291Z,79.90
2018-03-25T18:56:27.876Z,94.43
2018-03-25T18:58:55.263Z,106.20
2018-03-25T19:01:22.662Z,100.90
2018-03-25T19:03:50.092Z,97.47
2018-03-25T19:06:17.470Z,93.37
2018-03-25T19:08:44.854Z,101.47
2018-03-25T19:11:12.276Z,96.63
2018-03-25T19:13:39.647Z,101.13
2018-03-25T19:16:07.029Z,89.40
2018-03-25T19:18:34.442Z,105.57
2018-03-25T19:21:01.831Z,104.33
2018-03-25T19:23:29.205Z,89.00
2018-03-25T19:25:56.626Z,108.00
2018-03-25T19:28:24.000Z,96.03
2018-03-25T19:30:51.375Z,97.40
2018-03-25T19:33:18.799Z,101.30
2018-03-25T19:35:46.708Z,98.03
2018-03-25T19:38:14.088Z,87.40
2018-03-25T19:40:41.524Z,100.57
2018-03-25T19:43:08.906Z,97.97
2018-03-25T19:45:36.281Z,94.83
2018-03-25T19:48:03.696Z,94.20
2018-03-25T19:50:31.079Z,84.87
2018-03-25T19:52:58.447Z,82.17
2018-03-25T19:55:25.870Z,96.10
2018-03-25T19:57:53.257Z,88.00
2018-03-25T20:00:20.629Z,86.80
2018-03-25T20:02:48.036Z,87.43
2018-03-25T20:05:15.469Z,86.40
2018-03-25T20:07:42.857Z,81.77
2018-03-25T20:10:10.230Z,85.70
2018-03-25T20:12:37.649Z,85.63
2018-03-25T20:15:05.074Z,93.77
2018-03-25T20:17:32.453Z,110.20
2018-03-25T20:19:59.884Z,97.27
2018-03-25T20:22:27.391Z,88.77
2018-03-25T20:24:54.761Z,96.60
2018-03-25T20:27:22.184Z,94.73
2018-03-25T20:29:49.625Z,92.73
2018-03-25T20:32:16.996Z,89.27
2018-03-25T20:34:44.414Z,99.37
2018-03-25T20:37:11.797Z,93.30
2018-03-25T20:39:39.169Z,85.83
2018-03-25T20:42:06.628Z,89.57
2018-03-25T20:44:34.051Z,79.40
2018-03-25T20:47:01.415Z,86.60
2018-03-25T20:49:28.825Z,90.87
2018-03-25T20:51:56.199Z,84.20
2018-03-25T20:54:23.569Z,81.57
2018-03-25T20:56:51.046Z,84.33
2018-03-25T20:59:18.423Z,76.37
2018-03-25T21:01:45.786Z,79.93
2018-03-25T21:04:13.195Z,77.63
2018-03-25T21:06:40.553Z,72.13
2018-03-25T21:09:07.908Z,74.07
2018-03-25T21:11:35.323Z,75.70
2018-03-25T21:14:02.678Z,68.77
2018-03-25T21:16:30.076Z,71.47
2018-03-25T21:18:57.489Z,66.60
2018-03-25T21:21:24.853Z,59.13
2018-03-25T21:23:52.217Z,64.33
2018-03-25T21:26:19.623Z,61.93
2018-03-25T21:28:46.991Z,64.57
2018-03-25T21:31:14.360Z,61.13
2018-03-25T21:33:41.761Z,59.40
2018-03-25T21:36:09.116Z,60.10
2018-03-25T21:38:36.485Z,59.63
2018-03-25T21:41:03.889Z,61.50
2018-03-25T21:43:31.240Z,72.80
2018-03-25T21:45:58.641Z,64.33
2018-03-25T21:48:26.045Z,75.30
2018-03-25T21:50:53.406Z,69.47
2018-03-25T21:53:20.773Z,61.93
2018-03-25T21:55:48.190Z,58.43
2018-03-25T21:58:15.545Z,60.53
2018-03-25T22:00:42.905Z,57.90
2018-03-25T22:03:10.306Z,59.43
2018-03-25T22:05:37.694Z,61.00
2018-03-25T22:08:05.105Z,57.97
2018-03-25T22:10:32.500Z,56.20
2018-03-25T22:12:59.861Z,51.93
2018-03-25T22:15:27.267Z,59.13
2018-03-25T22:17:54.621Z,64.93
2018-03-25T22:20:21.999Z,58.13
2018-03-25T22:22:49.401Z,56.53
2018-03-25T22:25:16.785Z,59.50
2018-03-25T22:27:44.145Z,56.10
2018-03-25T22:30:11.560Z,54.27
2018-03-25T22:32:38.941Z,58.07
2018-03-25T22:35:06.301Z,56.27
2018-03-25T22:37:33.694Z,61.83
2018-03-25T22:40:01.060Z,62.40
2018-03-25T22:42:28.502Z,60.87
2018-03-25T22:44:55.906Z,66.03
2018-03-25T22:47:23.261Z,59.23
2018-03-25T22:49:50.629Z,58.67
2018-03-25T22:52:18.034Z,61.83
2018-03-25T22:54:45.428Z,60.17
2018-03-25T22:57:12.794Z,61.33
2018-03-25T22:59:40.241Z,56.20
2018-03-25T23:02:07.573Z,60.83
2018-03-25T23:04:34.950Z,57.73
2018-03-25T23:07:02.358Z,59.97
2018-03-25T23:09:29.717Z,59.57
2018-03-25T23:11:57.074Z,54.77
2018-03-25T23:14:24.457Z,54.90
2018-03-25T23:16:51.819Z,55.40
2018-03-25T23:19:19.178Z,59.07
2018-03-25T23:21:46.568Z,60.50
2018-03-25T23:24:13.930Z,56.50
2018-03-25T23:26:41.315Z,59.40
2018-03-25T23:29:08.697Z,57.80
2018-03-25T23:31:36.066Z,55.63
2018-03-25T23:34:03.461Z,55.57
2018-03-25T23:36:30.834Z,58.20
2018-03-25T23:38:58.196Z,60.67
2018-03-25T23:41:25.609Z,62.43
2018-03-25T23:43:52.993Z,55.90
2018-03-25T23:46:20.353Z,56.40
2018-03-25T23:48:47.746Z,56.80
2018-03-25T23:51:15.098Z,59.17
2018-03-25T23:53:42.472Z,58.57
2018-03-25T23:56:09.873Z,55.50
2018-03-25T23:58:37.265Z,52.13
